createdAt,value
2019-03-24T00:00:36.949Z,2.42
2019-03-24T00:05:40.406Z,4.53
2019-03-24T00:10:43.874Z,3.53
2019-03-24T00:15:47.336Z,4.65
2019-03-24T00:20:50.797Z,3.77
2019-03-24T00:25:54.255Z,3.02
2019-03-24T00:30:57.718Z,2.92
2019-03-24T00:36:01.177Z,3.67
2019-03-24T00:41:04.654Z,2.87
2019-03-24T00:46:08.112Z,4.03
2019-03-24T00:51:11.571Z,3.27
2019-03-24T00:56:15.046Z,2.92
2019-03-24T01:01:19.177Z,2.67
2019-03-24T01:06:22.642Z,4.72
2019-03-24T01:11:26.099Z,2.42
2019-03-24T01:16:29.614Z,2.47
2019-03-24T01:21:33.076Z,2.83
2019-03-24T01:26:36.537Z,3.65
2019-03-24T01:31:40.000Z,3.35
2019-03-24T01:36:43.469Z,3.52
2019-03-24T01:41:46.924Z,2.87
2019-03-24T01:46:50.384Z,3.10
2019-03-24T01:51:53.844Z,2.47
2019-03-24T01:56:57.304Z,2.20
2019-03-24T02:02:00.774Z,2.10
2019-03-24T02:07:04.433Z,3.60
2019-03-24T02:12:07.892Z,2.92
2019-03-24T02:17:11.359Z,2.40
2019-03-24T02:22:14.815Z,3.58
2019-03-24T02:27:18.282Z,2.35
2019-03-24T02:32:21.742Z,4.33
2019-03-24T02:37:25.200Z,3.62
2019-03-24T02:42:28.664Z,2.12
2019-03-24T02:47:32.126Z,3.35
2019-03-24T02:52:35.589Z,2.87
2019-03-24T02:57:39.052Z,3.22
2019-03-24T03:02:42.509Z,3.62
2019-03-24T03:07:45.990Z,3.20
2019-03-24T03:12:49.454Z,2.20
2019-03-24T03:17:52.921Z,2.83
2019-03-24T03:22:56.396Z,2.60
2019-03-24T03:27:59.860Z,3.50
2019-03-24T03:33:03.397Z,2.58
2019-03-24T03:38:06.912Z,2.58
2019-03-24T03:43:10.375Z,2.67
2019-03-24T03:48:13.828Z,2.52
2019-03-24T03:53:17.298Z,3.00
2019-03-24T03:58:20.750Z,2.27
2019-03-24T04:03:24.244Z,2.65
2019-03-24T04:08:27.709Z,1.95
2019-03-24T04:13:31.172Z,2.27
2019-03-24T04:18:34.643Z,1.73
2019-03-24T04:23:38.100Z,2.40
2019-03-24T04:28:41.567Z,2.00
2019-03-24T04:33:45.033Z,3.12
2019-03-24T04:38:48.571Z,2.33
2019-03-24T04:43:52.035Z,1.70
2019-03-24T04:48:55.502Z,1.87
2019-03-24T04:53:58.960Z,2.00
2019-03-24T04:59:02.420Z,1.83
2019-03-24T05:04:05.881Z,2.47
2019-03-24T05:09:09.344Z,2.03
2019-03-24T05:14:12.805Z,2.27
2019-03-24T05:19:16.272Z,4.10
2019-03-24T05:24:19.729Z,2.77
2019-03-24T05:29:23.188Z,2.27
2019-03-24T05:34:26.654Z,1.70
2019-03-24T05:39:30.121Z,2.02
2019-03-24T05:44:33.587Z,2.15
2019-03-24T05:49:37.070Z,2.55
2019-03-24T05:54:40.538Z,2.05
2019-03-24T05:59:44.006Z,2.30
2019-03-24T06:04:47.467Z,2.33
2019-03-24T06:09:50.937Z,2.00
2019-03-24T06:14:54.399Z,2.00
2019-03-24T06:19:57.857Z,2.02
2019-03-24T06:25:01.323Z,1.82
2019-03-24T06:30:07.661Z,2.54
2019-03-24T06:35:11.250Z,1.90
2019-03-24T06:40:14.782Z,3.90
2019-03-24T06:45:27.980Z,2.17
2019-03-24T06:50:23.423Z,2.30
2019-03-24T06:55:26.895Z,2.45
2019-03-24T07:00:30.366Z,2.02
2019-03-24T07:05:33.836Z,1.55
2019-03-24T07:10:37.298Z,2.12
2019-03-24T07:15:40.762Z,1.80
2019-03-24T07:20:44.224Z,1.55
2019-03-24T07:25:47.697Z,1.95
2019-03-24T07:30:51.156Z,1.95
2019-03-24T07:35:54.628Z,2.70
2019-03-24T07:40:58.083Z,2.22
2019-03-24T07:46:01.559Z,2.12
2019-03-24T07:51:05.018Z,2.00
2019-03-24T07:56:08.480Z,1.47
2019-03-24T08:01:11.946Z,14.95
2019-03-24T08:06:15.416Z,20.32
2019-03-24T08:11:18.897Z,30.43
2019-03-24T08:16:22.360Z,24.67
2019-03-24T08:21:25.832Z,17.90
2019-03-24T08:26:29.306Z,19.10
2019-03-24T08:31:32.776Z,17.77
2019-03-24T08:36:36.248Z,16.55
2019-03-24T08:41:39.716Z,17.45
2019-03-24T08:46:45.122Z,19.95
2019-03-24T08:51:48.382Z,60.45
2019-03-24T08:56:51.854Z,51.00
2019-03-24T09:01:55.322Z,50.35
2019-03-24T09:06:58.795Z,40.05
2019-03-24T09:12:02.273Z,33.23
2019-03-24T09:17:05.740Z,32.48
2019-03-24T09:22:09.216Z,32.83
2019-03-24T09:27:12.693Z,29.20
2019-03-24T09:32:16.157Z,27.98
2019-03-24T09:37:19.627Z,19.92
2019-03-24T09:42:23.102Z,22.93
2019-03-24T09:47:26.567Z,22.02
2019-03-24T09:52:30.047Z,22.95
2019-03-24T09:57:33.514Z,22.70
2019-03-24T10:02:36.988Z,26.50
2019-03-24T10:07:40.458Z,33.15
2019-03-24T10:12:43.927Z,26.65
2019-03-24T10:17:47.395Z,20.85
2019-03-24T10:22:50.864Z,25.25
2019-03-24T10:27:54.334Z,19.37
2019-03-24T10:32:57.808Z,20.77
2019-03-24T10:38:01.288Z,18.05
2019-03-24T10:43:04.825Z,19.70
2019-03-24T10:48:08.290Z,20.68
2019-03-24T10:53:11.758Z,16.48
2019-03-24T10:58:15.229Z,14.23
2019-03-24T11:03:18.693Z,12.93
2019-03-24T11:08:22.163Z,11.95
2019-03-24T11:13:25.639Z,13.83
2019-03-24T11:18:29.102Z,16.17
2019-03-24T11:23:32.569Z,11.38
2019-03-24T11:28:36.035Z,15.70
2019-03-24T11:33:39.508Z,42.27
2019-03-24T11:38:42.995Z,36.70
2019-03-24T11:43:46.466Z,33.95
2019-03-24T11:48:49.933Z,27.55
2019-03-24T11:53:53.418Z,30.23
2019-03-24T11:58:56.979Z,33.67
2019-03-24T12:04:00.548Z,26.48
2019-03-24T12:09:05.285Z,29.77
2019-03-24T12:14:08.756Z,27.87
2019-03-24T12:19:12.228Z,24.12
2019-03-24T12:24:17.336Z,21.87
2019-03-24T12:29:20.807Z,23.70
2019-03-24T12:34:24.283Z,18.57
2019-03-24T12:39:27.740Z,14.63
2019-03-24T12:44:31.212Z,15.05
2019-03-24T12:49:34.738Z,17.73
2019-03-24T12:54:38.199Z,17.12
2019-03-24T12:59:41.668Z,15.17
2019-03-24T13:04:45.199Z,16.47
2019-03-24T13:09:48.664Z,13.45
2019-03-24T13:14:52.582Z,13.43
2019-03-24T13:19:56.065Z,14.53
2019-03-24T13:24:59.529Z,13.90
2019-03-24T13:30:06.124Z,12.90
2019-03-24T13:35:09.584Z,12.90
2019-03-24T13:40:13.043Z,11.60
2019-03-24T13:45:16.505Z,12.33
2019-03-24T13:50:30.698Z,11.47
2019-03-24T13:55:25.164Z,10.20
2019-03-24T14:00:28.697Z,12.18
2019-03-24T14:05:32.160Z,11.57
2019-03-24T14:10:35.630Z,12.28
2019-03-24T14:15:39.101Z,10.45
2019-03-24T14:20:43.875Z,14.28
2019-03-24T14:25:47.582Z,9.60
2019-03-24T14:30:51.386Z,19.60
2019-03-24T14:35:54.849Z,19.67
2019-03-24T14:40:58.316Z,21.30
2019-03-24T14:46:01.779Z,15.93
2019-03-24T14:51:05.242Z,14.13
2019-03-24T14:56:08.710Z,12.53
2019-03-24T15:01:12.181Z,13.70
2019-03-24T15:06:15.640Z,11.97
2019-03-24T15:11:19.131Z,13.43
2019-03-24T15:16:22.598Z,10.72
2019-03-24T15:21:26.072Z,12.20
2019-03-24T15:26:29.523Z,8.93
2019-03-24T15:31:32.990Z,12.00
2019-03-24T15:36:36.453Z,12.55
2019-03-24T15:41:39.920Z,12.60
2019-03-24T15:46:43.382Z,12.63
2019-03-24T15:51:46.848Z,10.03
2019-03-24T15:56:50.318Z,12.98
2019-03-24T16:01:53.784Z,8.60
2019-03-24T16:06:57.232Z,8.18
2019-03-24T16:12:00.864Z,9.95
2019-03-24T16:17:04.353Z,14.45
2019-03-24T16:22:07.848Z,9.58
2019-03-24T16:27:11.301Z,9.60
2019-03-24T16:32:14.781Z,8.73
2019-03-24T16:37:18.260Z,9.00
2019-03-24T16:42:21.742Z,10.40
2019-03-24T16:47:25.217Z,9.83
2019-03-24T16:52:28.691Z,9.28
2019-03-24T16:57:32.172Z,9.13
2019-03-24T17:02:35.661Z,9.13
2019-03-24T17:07:39.313Z,6.92
2019-03-24T17:12:42.801Z,24.18
2019-03-24T17:17:46.280Z,35.37
2019-03-24T17:22:49.762Z,19.57
2019-03-24T17:27:53.254Z,15.45
2019-03-24T17:32:56.743Z,14.13
2019-03-24T17:38:00.221Z,16.77
2019-03-24T17:43:03.778Z,18.27
2019-03-24T17:48:07.443Z,13.72
2019-03-24T17:53:10.924Z,11.22
2019-03-24T17:58:14.402Z,7.62
2019-03-24T18:03:17.934Z,10.90
2019-03-24T18:08:21.395Z,10.65
2019-03-24T18:13:24.861Z,10.68
2019-03-24T18:18:28.325Z,7.70
2019-03-24T18:23:31.783Z,8.00
2019-03-24T18:28:35.252Z,8.27
2019-03-24T18:33:38.719Z,9.60
2019-03-24T18:38:42.197Z,11.23
2019-03-24T18:43:45.656Z,7.60
2019-03-24T18:48:49.121Z,7.85
2019-03-24T18:53:52.578Z,8.25
2019-03-24T18:58:56.036Z,6.42
2019-03-24T19:03:59.495Z,4.85
2019-03-24T19:09:02.965Z,8.98
2019-03-24T19:14:06.417Z,5.87
2019-03-24T19:19:09.881Z,5.70
2019-03-24T19:24:13.340Z,5.08
2019-03-24T19:29:16.829Z,6.95
2019-03-24T19:34:20.293Z,6.85
2019-03-24T19:39:24.019Z,6.97
2019-03-24T19:44:27.489Z,4.62
2019-03-24T19:49:30.954Z,11.45
2019-03-24T19:54:34.422Z,7.08
2019-03-24T19:59:37.884Z,4.45
2019-03-24T20:04:41.347Z,6.42
2019-03-24T20:09:44.811Z,5.87
2019-03-24T20:14:48.271Z,5.60
2019-03-24T20:19:51.732Z,5.47
2019-03-24T20:24:55.193Z,7.80
2019-03-24T20:29:58.647Z,6.40
2019-03-24T20:35:02.111Z,5.62
2019-03-24T20:40:07.272Z,6.60
2019-03-24T20:45:11.571Z,4.76
2019-03-24T20:50:15.168Z,5.77
2019-03-24T20:55:18.628Z,6.58
2019-03-24T21:00:35.262Z,4.90
2019-03-24T21:05:38.753Z,6.45
2019-03-24T21:10:42.190Z,6.85
2019-03-24T21:15:45.647Z,6.05
2019-03-24T21:20:49.114Z,6.83
2019-03-24T21:25:52.581Z,6.67
2019-03-24T21:30:56.050Z,10.10
2019-03-24T21:35:59.516Z,5.30
2019-03-24T21:41:03.449Z,5.00
2019-03-24T21:46:06.918Z,4.93
2019-03-24T21:51:10.373Z,6.25
2019-03-24T21:56:14.274Z,4.85
2019-03-24T22:01:17.870Z,8.38
2019-03-24T22:06:21.328Z,4.17
2019-03-24T22:11:24.788Z,5.08
2019-03-24T22:16:28.243Z,4.30
2019-03-24T22:21:31.705Z,4.27
2019-03-24T22:26:35.165Z,4.03
2019-03-24T22:31:38.788Z,4.67
2019-03-24T22:36:42.255Z,5.03
2019-03-24T22:41:45.712Z,5.92
2019-03-24T22:46:49.175Z,10.30
2019-03-24T22:51:54.835Z,3.30
2019-03-24T22:56:57.947Z,5.65
2019-03-24T23:02:01.607Z,3.40
2019-03-24T23:07:05.308Z,4.58
2019-03-24T23:12:08.768Z,4.62
2019-03-24T23:17:12.227Z,2.95
2019-03-24T23:22:15.687Z,3.35
2019-03-24T23:27:19.418Z,3.90
2019-03-24T23:32:22.881Z,2.25
2019-03-24T23:37:26.346Z,3.42
2019-03-24T23:42:29.799Z,2.62
2019-03-24T23:47:33.261Z,2.92
2019-03-24T23:52:36.721Z,3.02
2019-03-24T23:57:40.181Z,1.98
